createdAt,value
2019-04-16T00:00:44.183Z,6.37
2019-04-16T00:03:10.932Z,6.39
2019-04-16T00:05:39.494Z,6.39
2019-04-16T00:08:26.703Z,6.36
2019-04-16T00:10:57.079Z,6.28
2019-04-16T00:13:41.067Z,6.22
2019-04-16T00:16:12.724Z,6.21
2019-04-16T00:18:36.462Z,6.13
2019-04-16T00:21:23.061Z,6.05
2019-04-16T00:24:08.127Z,6.00
2019-04-16T00:26:35.921Z,5.99
2019-04-16T00:29:03.035Z,5.88
2019-04-16T00:31:30.384Z,5.82
2019-04-16T00:33:57.114Z,5.85
2019-04-16T00:36:23.763Z,5.83
2019-04-16T00:38:53.789Z,5.85
2019-04-16T00:41:19.188Z,5.73
2019-04-16T00:43:46.040Z,5.75
2019-04-16T00:46:12.747Z,5.69
2019-04-16T00:48:39.548Z,5.71
2019-04-16T00:51:06.276Z,5.71
2019-04-16T00:53:32.978Z,5.63
2019-04-16T00:55:59.715Z,5.62
2019-04-16T00:58:26.434Z,5.60
2019-04-16T01:00:53.203Z,5.58
2019-04-16T01:03:19.931Z,5.52
2019-04-16T01:05:47.774Z,5.47
2019-04-16T01:08:14.719Z,5.39
2019-04-16T01:10:41.447Z,5.44
2019-04-16T01:13:08.144Z,5.35
2019-04-16T01:15:34.886Z,5.35
2019-04-16T01:18:04.340Z,5.35
2019-04-16T01:20:31.619Z,5.25
2019-04-16T01:22:58.287Z,5.19
2019-04-16T01:25:25.035Z,5.21
2019-04-16T01:27:53.563Z,5.22
2019-04-16T01:30:22.218Z,5.23
2019-04-16T01:32:59.610Z,5.26
2019-04-16T01:35:28.173Z,5.21
2019-04-16T01:38:13.437Z,5.13
2019-04-16T01:40:41.999Z,5.19
2019-04-16T01:43:08.726Z,5.13
2019-04-16T01:45:36.612Z,5.01
2019-04-16T01:48:06.906Z,5.00
2019-04-16T01:50:32.208Z,4.96
2019-04-16T01:52:58.974Z,4.97
2019-04-16T01:55:26.433Z,4.95
2019-04-16T01:57:53.346Z,4.87
2019-04-16T02:00:20.051Z,4.85
2019-04-16T02:02:47.093Z,4.88
2019-04-16T02:05:13.978Z,4.93
2019-04-16T02:07:40.596Z,4.90
2019-04-16T02:10:08.869Z,4.86
2019-04-16T02:12:35.871Z,4.81
2019-04-16T02:15:08.405Z,4.77
2019-04-16T02:17:35.037Z,4.71
2019-04-16T02:20:05.549Z,4.67
2019-04-16T02:22:30.255Z,4.58
2019-04-16T02:24:56.889Z,4.58
2019-04-16T02:27:26.248Z,4.55
2019-04-16T02:29:53.700Z,4.52
2019-04-16T02:32:21.614Z,4.51
2019-04-16T02:34:48.269Z,4.45
2019-04-16T02:37:16.058Z,4.46
2019-04-16T02:39:49.884Z,4.49
2019-04-16T02:42:12.272Z,4.52
2019-04-16T02:44:38.915Z,4.47
2019-04-16T02:47:07.715Z,4.44
2019-04-16T02:49:34.098Z,4.35
2019-04-16T02:52:05.457Z,4.33
2019-04-16T02:54:34.536Z,4.28
2019-04-16T02:57:06.025Z,4.32
2019-04-16T02:59:47.381Z,4.35
2019-04-16T03:02:23.771Z,4.38
2019-04-16T03:04:52.508Z,4.28
2019-04-16T03:07:19.191Z,4.22
2019-04-16T03:09:45.816Z,4.13
2019-04-16T03:12:12.555Z,4.08
2019-04-16T03:14:39.144Z,4.02
2019-04-16T03:17:10.215Z,4.10
2019-04-16T03:19:39.010Z,4.08
2019-04-16T03:22:06.879Z,4.00
2019-04-16T03:24:33.527Z,3.99
2019-04-16T03:27:00.138Z,4.00
2019-04-16T03:29:27.483Z,3.95
2019-04-16T03:31:58.352Z,3.96
2019-04-16T03:34:23.793Z,3.94
2019-04-16T03:36:50.808Z,3.89
2019-04-16T03:39:17.522Z,3.86
2019-04-16T03:41:44.154Z,3.85
2019-04-16T03:44:10.716Z,3.89
2019-04-16T03:46:39.910Z,3.84
2019-04-16T03:49:05.760Z,3.85
2019-04-16T03:51:32.670Z,3.85
2019-04-16T03:54:00.977Z,3.81
2019-04-16T03:56:30.663Z,3.78
2019-04-16T03:58:56.077Z,3.78
2019-04-16T04:01:22.677Z,3.82
2019-04-16T04:03:49.320Z,3.77
2019-04-16T04:06:15.993Z,3.68
2019-04-16T04:08:45.365Z,3.69
2019-04-16T04:11:11.224Z,3.70
2019-04-16T04:13:37.779Z,3.72
2019-04-16T04:16:04.404Z,3.63
2019-04-16T04:18:31.101Z,3.60
2019-04-16T04:20:57.703Z,3.68
2019-04-16T04:23:25.484Z,3.59
2019-04-16T04:25:52.903Z,3.57
2019-04-16T04:28:20.529Z,3.57
2019-04-16T04:30:48.960Z,3.63
2019-04-16T04:33:17.742Z,3.63
2019-04-16T04:35:44.396Z,3.58
2019-04-16T04:38:11.020Z,3.55
2019-04-16T04:40:44.421Z,3.63
2019-04-16T04:43:06.401Z,3.69
2019-04-16T04:45:33.024Z,3.63
2019-04-16T04:48:00.739Z,3.70
2019-04-16T04:50:27.365Z,3.69
2019-04-16T04:52:54.022Z,3.68
2019-04-16T04:55:23.414Z,3.78
2019-04-16T04:57:49.230Z,3.78
2019-04-16T05:00:16.197Z,3.85
2019-04-16T05:02:43.669Z,3.89
2019-04-16T05:05:15.512Z,3.88
2019-04-16T05:07:42.261Z,3.95
2019-04-16T05:10:09.080Z,4.01
2019-04-16T05:12:35.716Z,4.21
2019-04-16T05:15:04.643Z,4.36
2019-04-16T05:17:32.284Z,4.19
2019-04-16T05:19:58.933Z,4.31
2019-04-16T05:22:25.571Z,4.47
2019-04-16T05:24:52.190Z,4.43
2019-04-16T05:27:18.818Z,4.52
2019-04-16T05:29:48.334Z,4.57
2019-04-16T05:32:13.992Z,4.66
2019-04-16T05:34:40.594Z,4.82
2019-04-16T05:37:07.217Z,4.85
2019-04-16T05:39:33.795Z,4.89
2019-04-16T05:42:00.543Z,4.97
2019-04-16T05:44:27.210Z,5.09
2019-04-16T05:46:53.920Z,5.11
2019-04-16T05:49:24.671Z,5.03
2019-04-16T05:51:49.137Z,5.00
2019-04-16T05:54:26.730Z,5.00
2019-04-16T05:56:57.993Z,5.08
2019-04-16T05:59:24.566Z,5.30
2019-04-16T06:02:01.676Z,5.51
2019-04-16T06:04:28.266Z,5.58
2019-04-16T06:06:54.976Z,5.72
2019-04-16T06:09:21.590Z,5.80
2019-04-16T06:11:48.178Z,5.84
2019-04-16T06:14:26.215Z,5.85
2019-04-16T06:16:57.691Z,6.11
2019-04-16T06:19:47.502Z,6.31
2019-04-16T06:22:16.629Z,6.29
2019-04-16T06:25:08.493Z,6.48
2019-04-16T06:27:49.741Z,6.78
2019-04-16T06:30:33.924Z,7.10
2019-04-16T06:33:00.578Z,7.27
2019-04-16T06:35:43.377Z,7.35
2019-04-16T06:38:13.885Z,7.52
2019-04-16T06:40:51.370Z,8.02
2019-04-16T06:43:25.980Z,8.27
2019-04-16T06:46:01.788Z,8.64
2019-04-16T06:48:30.155Z,8.92
2019-04-16T06:51:15.271Z,8.95
2019-04-16T06:54:00.623Z,9.06
2019-04-16T06:56:41.116Z,8.71
2019-04-16T06:59:16.757Z,9.48
2019-04-16T07:02:00.060Z,9.48
2019-04-16T07:04:45.173Z,9.79
2019-04-16T07:07:13.608Z,10.03
2019-04-16T07:09:42.314Z,10.23
2019-04-16T07:12:11.780Z,10.56
2019-04-16T07:14:38.391Z,10.73
2019-04-16T07:17:04.987Z,10.63
2019-04-16T07:19:31.557Z,10.70
2019-04-16T07:21:59.032Z,10.94
2019-04-16T07:24:30.207Z,11.29
2019-04-16T07:26:56.297Z,11.75
2019-04-16T07:29:36.322Z,12.10
2019-04-16T07:32:21.797Z,12.27
2019-04-16T07:34:50.251Z,12.49
2019-04-16T07:37:32.888Z,12.93
2019-04-16T07:40:00.750Z,12.98
2019-04-16T07:42:51.816Z,12.90
2019-04-16T07:45:14.722Z,12.92
2019-04-16T07:47:43.104Z,13.15
2019-04-16T07:50:11.596Z,13.47
2019-04-16T07:52:42.010Z,13.66
2019-04-16T07:55:10.557Z,13.88
2019-04-16T07:57:37.229Z,13.85
2019-04-16T08:00:09.511Z,14.14
2019-04-16T08:02:35.983Z,13.92
2019-04-16T08:05:07.751Z,13.94
2019-04-16T08:07:33.299Z,14.19
2019-04-16T08:10:02.057Z,14.64
2019-04-16T08:12:30.325Z,14.78
2019-04-16T08:14:57.143Z,14.87
2019-04-16T08:17:23.703Z,15.05
2019-04-16T08:19:50.305Z,15.23
2019-04-16T08:22:16.992Z,15.30
2019-04-16T08:25:04.140Z,14.88
2019-04-16T08:27:31.034Z,15.36
2019-04-16T08:30:02.475Z,15.95
2019-04-16T08:32:26.314Z,16.05
2019-04-16T08:34:52.902Z,15.77
2019-04-16T08:37:19.467Z,15.89
2019-04-16T08:39:46.079Z,16.07
2019-04-16T08:42:13.760Z,16.49
2019-04-16T08:44:40.363Z,16.91
2019-04-16T08:47:11.476Z,17.20
2019-04-16T08:49:35.544Z,17.51
2019-04-16T08:52:02.160Z,17.88
2019-04-16T08:54:28.777Z,17.95
2019-04-16T08:56:56.383Z,18.18
2019-04-16T08:59:22.994Z,17.71
2019-04-16T09:01:51.375Z,18.04
2019-04-16T09:04:18.491Z,18.33
2019-04-16T09:06:46.367Z,18.39
2019-04-16T09:09:27.711Z,18.22
2019-04-16T09:11:56.151Z,18.62
2019-04-16T09:14:25.664Z,19.15
2019-04-16T09:17:06.956Z,19.40
2019-04-16T09:19:35.461Z,18.94
2019-04-16T09:22:02.071Z,17.35
2019-04-16T09:24:40.461Z,17.22
2019-04-16T09:27:28.650Z,17.15
2019-04-16T09:30:17.008Z,17.85
2019-04-16T09:32:47.256Z,18.16
2019-04-16T09:35:19.658Z,18.51
2019-04-16T09:37:55.143Z,18.89
2019-04-16T09:40:40.229Z,19.09
2019-04-16T09:43:18.646Z,19.45
2019-04-16T09:45:45.342Z,19.94
2019-04-16T09:48:12.072Z,19.83
2019-04-16T09:50:43.160Z,20.18
2019-04-16T09:53:07.282Z,20.14
2019-04-16T09:55:33.904Z,20.06
2019-04-16T09:58:06.094Z,18.99
2019-04-16T10:00:32.808Z,19.12
2019-04-16T10:03:01.216Z,18.76
2019-04-16T10:05:29.687Z,18.61
2019-04-16T10:07:57.423Z,19.66
2019-04-16T10:10:28.315Z,19.72
2019-04-16T10:12:52.585Z,20.12
2019-04-16T10:15:19.177Z,20.28
2019-04-16T10:17:45.824Z,19.98
2019-04-16T10:20:12.772Z,20.37
2019-04-16T10:22:39.577Z,20.56
2019-04-16T10:25:08.313Z,20.24
2019-04-16T10:27:39.570Z,20.37
2019-04-16T10:30:15.045Z,20.76
2019-04-16T10:32:41.671Z,21.05
2019-04-16T10:35:08.387Z,21.24
2019-04-16T10:37:35.039Z,21.28
2019-04-16T10:40:15.354Z,21.26
2019-04-16T10:42:47.206Z,21.76
2019-04-16T10:45:30.977Z,21.58
2019-04-16T10:48:05.245Z,21.86
2019-04-16T10:50:33.719Z,21.50
2019-04-16T10:53:02.220Z,21.92
2019-04-16T10:55:30.709Z,21.97
2019-04-16T10:58:14.347Z,21.88
2019-04-16T11:00:52.763Z,21.53
2019-04-16T11:03:28.676Z,21.65
2019-04-16T11:05:57.841Z,21.40
2019-04-16T11:08:24.942Z,20.66
2019-04-16T11:10:51.515Z,20.52
2019-04-16T11:13:19.967Z,20.37
2019-04-16T11:15:46.558Z,20.31
2019-04-16T11:18:13.180Z,21.14
2019-04-16T11:20:39.972Z,20.61
2019-04-16T11:23:07.510Z,20.44
2019-04-16T11:25:34.838Z,20.08
2019-04-16T11:28:01.462Z,19.67
2019-04-16T11:30:29.881Z,19.87
2019-04-16T11:32:58.166Z,20.45
2019-04-16T11:35:24.818Z,20.81
2019-04-16T11:37:51.489Z,21.28
2019-04-16T11:40:18.083Z,21.60
2019-04-16T11:42:44.697Z,21.79
2019-04-16T11:45:13.782Z,22.09
2019-04-16T11:47:40.436Z,21.80
2019-04-16T11:50:07.242Z,21.18
2019-04-16T11:52:33.974Z,21.49
2019-04-16T11:55:00.903Z,21.61
2019-04-16T11:57:29.356Z,21.31
2019-04-16T12:00:06.604Z,21.77
2019-04-16T12:02:32.514Z,22.29
2019-04-16T12:05:04.088Z,21.72
2019-04-16T12:07:41.370Z,21.13
2019-04-16T12:10:14.587Z,20.72
2019-04-16T12:12:55.107Z,20.57
2019-04-16T12:15:23.620Z,20.87
2019-04-16T12:18:00.861Z,21.34
2019-04-16T12:20:45.986Z,21.61
2019-04-16T12:23:23.345Z,22.45
2019-04-16T12:25:54.750Z,22.44
2019-04-16T12:28:32.474Z,22.44
2019-04-16T12:31:10.022Z,22.28
2019-04-16T12:33:56.822Z,22.18
2019-04-16T12:36:41.608Z,21.91
2019-04-16T12:39:27.098Z,21.78
2019-04-16T12:42:13.632Z,21.47
2019-04-16T12:44:45.651Z,21.59
2019-04-16T12:47:12.612Z,20.68
2019-04-16T12:49:41.030Z,20.68
2019-04-16T12:52:15.598Z,21.06
2019-04-16T12:54:42.937Z,21.16
2019-04-16T12:57:29.420Z,21.27
2019-04-16T13:00:14.546Z,21.47
2019-04-16T13:02:46.133Z,21.73
2019-04-16T13:05:20.880Z,21.90
2019-04-16T13:07:47.729Z,21.89
2019-04-16T13:10:18.976Z,21.92
2019-04-16T13:12:56.636Z,21.92
2019-04-16T13:15:41.673Z,22.15
2019-04-16T13:18:10.192Z,22.16
2019-04-16T13:20:57.453Z,22.05
2019-04-16T13:23:35.029Z,22.28
2019-04-16T13:26:05.138Z,22.25
2019-04-16T13:28:31.787Z,22.30
2019-04-16T13:30:58.419Z,22.33
2019-04-16T13:33:24.938Z,21.93
2019-04-16T13:35:51.499Z,22.17
2019-04-16T13:38:20.050Z,22.58
2019-04-16T13:40:46.667Z,22.54
2019-04-16T13:43:15.093Z,22.54
2019-04-16T13:45:41.783Z,22.10
2019-04-16T13:48:16.619Z,21.93
2019-04-16T13:50:41.175Z,21.74
2019-04-16T13:53:28.643Z,21.97
2019-04-16T13:55:55.315Z,21.79
2019-04-16T13:58:39.089Z,21.88
2019-04-16T14:01:25.785Z,21.96
2019-04-16T14:03:56.102Z,22.27
2019-04-16T14:06:21.073Z,22.28
2019-04-16T14:08:48.588Z,22.39
2019-04-16T14:11:16.586Z,22.64
2019-04-16T14:13:44.975Z,22.44
2019-04-16T14:16:13.594Z,21.31
2019-04-16T14:18:40.393Z,21.03
2019-04-16T14:21:07.024Z,21.37
2019-04-16T14:23:33.688Z,21.25
2019-04-16T14:26:00.354Z,21.59
2019-04-16T14:28:26.964Z,21.51
2019-04-16T14:30:53.577Z,21.36
2019-04-16T14:33:40.285Z,21.55
2019-04-16T14:36:07.598Z,21.05
2019-04-16T14:38:36.055Z,20.91
2019-04-16T14:41:02.727Z,20.39
2019-04-16T14:43:31.109Z,20.68
2019-04-16T14:46:00.107Z,20.98
2019-04-16T14:48:26.369Z,21.15
2019-04-16T14:50:52.993Z,21.44
2019-04-16T14:53:21.414Z,21.49
2019-04-16T14:55:59.902Z,21.32
2019-04-16T14:58:38.377Z,21.51
2019-04-16T15:01:09.603Z,21.39
2019-04-16T15:03:38.014Z,21.18
2019-04-16T15:06:09.178Z,21.22
2019-04-16T15:08:54.343Z,21.18
2019-04-16T15:11:35.947Z,21.43
2019-04-16T15:14:23.360Z,21.21
2019-04-16T15:16:58.498Z,21.13
2019-04-16T15:19:26.917Z,20.90
2019-04-16T15:22:14.404Z,20.31
2019-04-16T15:24:57.243Z,19.90
2019-04-16T15:27:41.984Z,19.93
2019-04-16T15:30:28.616Z,19.76
2019-04-16T15:33:05.286Z,19.53
2019-04-16T15:35:32.632Z,19.74
2019-04-16T15:38:04.304Z,19.51
2019-04-16T15:40:33.045Z,19.66
2019-04-16T15:43:09.778Z,19.73
2019-04-16T15:45:38.173Z,19.67
2019-04-16T15:48:06.612Z,19.66
2019-04-16T15:50:40.988Z,19.75
2019-04-16T15:53:09.373Z,19.76
2019-04-16T15:55:46.878Z,19.69
2019-04-16T15:58:27.515Z,19.64
2019-04-16T16:01:13.534Z,19.68
2019-04-16T16:03:54.133Z,19.85
2019-04-16T16:06:22.583Z,19.54
2019-04-16T16:09:07.077Z,19.49
2019-04-16T16:11:34.021Z,19.48
2019-04-16T16:14:02.243Z,19.22
2019-04-16T16:16:41.434Z,19.28
2019-04-16T16:18:58.624Z,19.32
2019-04-16T16:21:25.338Z,19.29
2019-04-16T16:23:51.969Z,19.34
2019-04-16T16:26:18.592Z,19.28
2019-04-16T16:28:46.347Z,19.34
2019-04-16T16:31:12.996Z,19.37
2019-04-16T16:33:39.652Z,19.27
2019-04-16T16:36:06.291Z,19.23
2019-04-16T16:38:32.925Z,19.31
2019-04-16T16:40:59.606Z,19.17
2019-04-16T16:43:26.245Z,18.97
2019-04-16T16:46:04.563Z,18.81
2019-04-16T16:48:31.371Z,18.68
2019-04-16T16:50:57.984Z,18.65
2019-04-16T16:53:26.402Z,18.67
2019-04-16T16:55:54.721Z,18.74
2019-04-16T16:58:39.850Z,18.72
2019-04-16T17:01:08.249Z,18.61
2019-04-16T17:03:36.722Z,18.46
2019-04-16T17:06:03.766Z,18.48
2019-04-16T17:08:30.990Z,18.42
2019-04-16T17:11:14.082Z,18.33
2019-04-16T17:13:26.929Z,18.29
2019-04-16T17:15:53.555Z,18.04
2019-04-16T17:18:20.219Z,17.81
2019-04-16T17:20:50.077Z,17.55
2019-04-16T17:23:16.798Z,17.58
2019-04-16T17:25:43.959Z,17.55
2019-04-16T17:28:10.638Z,17.38
2019-04-16T17:30:37.253Z,17.33
2019-04-16T17:33:03.905Z,17.34
2019-04-16T17:35:30.700Z,17.20
2019-04-16T17:38:01.604Z,17.41
2019-04-16T17:40:37.200Z,17.19
2019-04-16T17:43:12.642Z,17.04
2019-04-16T17:45:42.271Z,17.07
2019-04-16T17:48:25.802Z,17.12
2019-04-16T17:50:54.843Z,17.03
2019-04-16T17:53:39.788Z,16.89
2019-04-16T17:56:11.000Z,16.80
2019-04-16T17:58:39.449Z,16.59
2019-04-16T18:01:24.513Z,16.51
2019-04-16T18:03:53.005Z,16.41
2019-04-16T18:06:21.461Z,16.34
2019-04-16T18:08:58.958Z,16.24
2019-04-16T18:11:31.258Z,16.15
2019-04-16T18:14:11.365Z,16.06
2019-04-16T18:16:55.479Z,15.92
2019-04-16T18:19:24.954Z,15.80
2019-04-16T18:21:53.732Z,15.69
2019-04-16T18:24:38.599Z,15.56
2019-04-16T18:27:15.877Z,15.48
2019-04-16T18:29:56.375Z,15.38
2019-04-16T18:32:30.506Z,15.28
2019-04-16T18:35:16.530Z,15.17
2019-04-16T18:37:48.588Z,15.04
2019-04-16T18:40:33.434Z,14.95
2019-04-16T18:43:04.580Z,14.89
2019-04-16T18:45:38.892Z,14.79
2019-04-16T18:48:13.832Z,14.70
2019-04-16T18:50:39.096Z,14.58
2019-04-16T18:53:09.577Z,14.50
2019-04-16T18:55:35.321Z,14.39
2019-04-16T18:58:01.993Z,14.25
2019-04-16T19:00:39.590Z,14.15
2019-04-16T19:03:06.145Z,14.13
2019-04-16T19:05:32.760Z,14.06
2019-04-16T19:08:00.826Z,13.97
2019-04-16T19:10:27.814Z,13.89
2019-04-16T19:12:55.016Z,13.72
2019-04-16T19:15:21.700Z,13.67
2019-04-16T19:17:49.861Z,13.62
2019-04-16T19:20:17.790Z,13.54
2019-04-16T19:22:46.513Z,13.47
2019-04-16T19:25:15.703Z,13.45
2019-04-16T19:27:42.306Z,13.33
2019-04-16T19:30:09.247Z,13.20
2019-04-16T19:32:35.865Z,13.14
2019-04-16T19:35:10.118Z,13.10
2019-04-16T19:37:33.377Z,12.99
2019-04-16T19:40:00.708Z,12.93
2019-04-16T19:42:28.813Z,12.82
2019-04-16T19:44:55.913Z,12.80
2019-04-16T19:47:23.365Z,12.69
2019-04-16T19:49:51.440Z,12.55
2019-04-16T19:52:18.093Z,12.51
2019-04-16T19:54:44.766Z,12.46
2019-04-16T19:57:11.460Z,12.39
2019-04-16T19:59:38.206Z,12.37
2019-04-16T20:02:04.934Z,12.33
2019-04-16T20:04:33.369Z,12.25
2019-04-16T20:07:02.420Z,12.20
2019-04-16T20:09:29.059Z,12.18
2019-04-16T20:11:56.491Z,12.11
2019-04-16T20:14:23.531Z,11.98
2019-04-16T20:16:50.183Z,11.91
2019-04-16T20:19:16.818Z,11.83
2019-04-16T20:21:44.914Z,11.77
2019-04-16T20:24:11.537Z,11.67
2019-04-16T20:26:38.225Z,11.59
2019-04-16T20:29:05.110Z,11.49
2019-04-16T20:31:31.761Z,11.50
2019-04-16T20:33:58.389Z,11.40
2019-04-16T20:36:25.067Z,11.33
2019-04-16T20:38:51.683Z,11.29
2019-04-16T20:41:19.200Z,11.25
2019-04-16T20:43:46.041Z,11.17
2019-04-16T20:46:12.653Z,11.14
2019-04-16T20:48:41.898Z,11.12
2019-04-16T20:51:07.869Z,11.01
2019-04-16T20:53:34.480Z,10.97
2019-04-16T20:56:01.095Z,10.95
2019-04-16T20:58:30.771Z,10.87
2019-04-16T21:00:58.183Z,10.82
2019-04-16T21:03:25.932Z,10.74
2019-04-16T21:05:58.868Z,10.77
2019-04-16T21:08:24.414Z,10.76
2019-04-16T21:10:49.664Z,10.68
2019-04-16T21:13:16.864Z,10.60
2019-04-16T21:15:43.584Z,10.60
2019-04-16T21:18:12.065Z,10.57
2019-04-16T21:20:38.714Z,10.43
2019-04-16T21:23:05.324Z,10.38
2019-04-16T21:25:31.989Z,10.29
2019-04-16T21:28:06.861Z,10.21
2019-04-16T21:30:34.260Z,10.26
2019-04-16T21:33:20.572Z,10.17
2019-04-16T21:35:49.603Z,10.15
2019-04-16T21:38:24.895Z,10.07
2019-04-16T21:40:52.767Z,10.01
2019-04-16T21:43:20.143Z,9.91
2019-04-16T21:45:48.354Z,9.87
2019-04-16T21:48:15.412Z,9.76
2019-04-16T21:50:44.552Z,9.74
2019-04-16T21:53:11.561Z,9.69
2019-04-16T21:55:38.201Z,9.60
2019-04-16T21:58:05.193Z,9.54
2019-04-16T22:00:33.994Z,9.47
2019-04-16T22:03:09.151Z,9.44
2019-04-16T22:05:32.853Z,9.38
2019-04-16T22:07:59.549Z,9.35
2019-04-16T22:10:26.182Z,9.39
2019-04-16T22:12:52.791Z,9.29
2019-04-16T22:15:19.500Z,9.25
2019-04-16T22:17:46.134Z,9.18
2019-04-16T22:20:12.741Z,9.12
2019-04-16T22:22:39.385Z,9.11
2019-04-16T22:25:06.265Z,9.07
2019-04-16T22:27:33.043Z,9.07
2019-04-16T22:29:59.701Z,9.02
2019-04-16T22:32:26.967Z,9.01
2019-04-16T22:34:54.855Z,8.83
2019-04-16T22:37:21.545Z,8.47
2019-04-16T22:40:06.466Z,8.46
2019-04-16T22:42:44.073Z,8.56
2019-04-16T22:45:18.369Z,8.57
2019-04-16T22:47:46.819Z,8.58
2019-04-16T22:50:17.026Z,8.52
2019-04-16T22:52:44.980Z,8.47
2019-04-16T22:55:10.560Z,8.42
2019-04-16T22:57:37.195Z,8.39
2019-04-16T23:00:11.495Z,8.35
2019-04-16T23:02:36.900Z,8.29
2019-04-16T23:05:04.997Z,8.37
2019-04-16T23:07:32.895Z,8.27
2019-04-16T23:09:59.631Z,8.23
2019-04-16T23:12:28.049Z,8.20
2019-04-16T23:14:54.778Z,8.12
2019-04-16T23:17:23.269Z,8.12
2019-04-16T23:19:51.678Z,8.05
2019-04-16T23:22:18.454Z,8.05
2019-04-16T23:24:45.119Z,7.99
2019-04-16T23:27:11.740Z,7.96
2019-04-16T23:29:38.399Z,7.87
2019-04-16T23:32:05.011Z,7.87
2019-04-16T23:34:31.674Z,7.87
2019-04-16T23:36:58.677Z,7.79
2019-04-16T23:39:26.232Z,7.70
2019-04-16T23:41:52.848Z,7.64
2019-04-16T23:44:25.834Z,7.68
2019-04-16T23:47:00.078Z,7.71
2019-04-16T23:49:40.471Z,7.65
2019-04-16T23:52:20.952Z,7.55
2019-04-16T23:54:49.421Z,7.50
2019-04-16T23:57:24.820Z,7.48
